sensor_id;sensor_type;location;lat;lon;timestamp;P1;durP1;ratioP1;P2;durP2;ratioP2
65328;SDS011;51941;52.210;5.158;2023-05-17T00:00:26;15.10;;;4.35;;
65328;SDS011;51941;52.210;5.158;2023-05-17T00:02:53;13.63;;;4.22;;
65328;SDS011;51941;52.210;5.158;2023-05-17T00:05:20;20.98;;;4.40;;
65328;SDS011;51941;52.210;5.158;2023-05-17T00:07:46;21.70;;;4.25;;
65328;SDS011;51941;52.210;5.158;2023-05-17T00:10:13;15.60;;;3.60;;
65328;SDS011;51941;52.210;5.158;2023-05-17T00:12:41;14.50;;;4.07;;
65328;SDS011;51941;52.210;5.158;2023-05-17T00:15:08;14.63;;;4.10;;
65328;SDS011;51941;52.210;5.158;2023-05-17T00:17:35;18.25;;;4.30;;
65328;SDS011;51941;52.210;5.158;2023-05-17T00:20:02;17.77;;;4.10;;
65328;SDS011;51941;52.210;5.158;2023-05-17T00:22:30;19.40;;;4.55;;
65328;SDS011;51941;52.210;5.158;2023-05-17T00:24:56;18.75;;;3.88;;
65328;SDS011;51941;52.210;5.158;2023-05-17T00:27:23;17.77;;;4.13;;
65328;SDS011;51941;52.210;5.158;2023-05-17T00:29:51;11.20;;;3.67;;
65328;SDS011;51941;52.210;5.158;2023-05-17T00:32:18;15.45;;;4.30;;
65328;SDS011;51941;52.210;5.158;2023-05-17T00:34:45;14.18;;;4.32;;
65328;SDS011;51941;52.210;5.158;2023-05-17T00:37:13;19.52;;;4.03;;
65328;SDS011;51941;52.210;5.158;2023-05-17T00:39:40;19.00;;;3.88;;
65328;SDS011;51941;52.210;5.158;2023-05-17T00:42:06;9.70;;;3.85;;
65328;SDS011;51941;52.210;5.158;2023-05-17T00:44:33;11.60;;;4.05;;
65328;SDS011;51941;52.210;5.158;2023-05-17T00:47:01;14.35;;;4.13;;
65328;SDS011;51941;52.210;5.158;2023-05-17T00:49:28;14.05;;;3.47;;
65328;SDS011;51941;52.210;5.158;2023-05-17T00:51:55;16.08;;;4.40;;
65328;SDS011;51941;52.210;5.158;2023-05-17T00:54:22;13.18;;;3.88;;
65328;SDS011;51941;52.210;5.158;2023-05-17T00:56:49;12.55;;;4.15;;
65328;SDS011;51941;52.210;5.158;2023-05-17T00:59:16;9.43;;;3.42;;
65328;SDS011;51941;52.210;5.158;2023-05-17T01:01:43;11.15;;;3.28;;
65328;SDS011;51941;52.210;5.158;2023-05-17T01:04:12;15.57;;;4.20;;
65328;SDS011;51941;52.210;5.158;2023-05-17T01:06:39;13.75;;;3.92;;
65328;SDS011;51941;52.210;5.158;2023-05-17T01:09:06;15.45;;;3.83;;
65328;SDS011;51941;52.210;5.158;2023-05-17T01:11:36;14.82;;;4.40;;
65328;SDS011;51941;52.210;5.158;2023-05-17T01:14:11;14.55;;;3.75;;
65328;SDS011;51941;52.210;5.158;2023-05-17T01:16:46;17.60;;;4.00;;
65328;SDS011;51941;52.210;5.158;2023-05-17T01:19:21;10.63;;;3.50;;
65328;SDS011;51941;52.210;5.158;2023-05-17T01:22:09;12.75;;;3.80;;
65328;SDS011;51941;52.210;5.158;2023-05-17T01:24:47;12.57;;;3.50;;
65328;SDS011;51941;52.210;5.158;2023-05-17T01:27:19;16.95;;;3.83;;
65328;SDS011;51941;52.210;5.158;2023-05-17T01:29:47;11.90;;;3.50;;
65328;SDS011;51941;52.210;5.158;2023-05-17T01:32:16;13.35;;;4.05;;
65328;SDS011;51941;52.210;5.158;2023-05-17T01:34:43;13.82;;;3.40;;
65328;SDS011;51941;52.210;5.158;2023-05-17T01:37:10;14.02;;;3.97;;
65328;SDS011;51941;52.210;5.158;2023-05-17T01:39:36;15.15;;;3.50;;
65328;SDS011;51941;52.210;5.158;2023-05-17T01:42:04;20.65;;;3.92;;
65328;SDS011;51941;52.210;5.158;2023-05-17T01:44:40;14.27;;;3.30;;
65328;SDS011;51941;52.210;5.158;2023-05-17T01:47:12;19.90;;;4.13;;
65328;SDS011;51941;52.210;5.158;2023-05-17T01:49:42;15.30;;;3.67;;
65328;SDS011;51941;52.210;5.158;2023-05-17T01:52:15;16.38;;;3.70;;
65328;SDS011;51941;52.210;5.158;2023-05-17T01:54:45;14.88;;;3.38;;
65328;SDS011;51941;52.210;5.158;2023-05-17T01:57:15;17.52;;;4.32;;
65328;SDS011;51941;52.210;5.158;2023-05-17T01:59:47;19.63;;;4.78;;
65328;SDS011;51941;52.210;5.158;2023-05-17T02:02:16;16.77;;;5.05;;
65328;SDS011;51941;52.210;5.158;2023-05-17T02:04:46;19.27;;;4.38;;
65328;SDS011;51941;52.210;5.158;2023-05-17T02:07:13;13.95;;;3.97;;
65328;SDS011;51941;52.210;5.158;2023-05-17T02:09:40;20.48;;;4.72;;
65328;SDS011;51941;52.210;5.158;2023-05-17T02:12:06;11.23;;;3.60;;
65328;SDS011;51941;52.210;5.158;2023-05-17T02:14:33;11.30;;;3.85;;
65328;SDS011;51941;52.210;5.158;2023-05-17T02:17:01;19.50;;;3.75;;
65328;SDS011;51941;52.210;5.158;2023-05-17T02:21:56;13.10;;;4.25;;
65328;SDS011;51941;52.210;5.158;2023-05-17T02:24:23;16.13;;;4.40;;
65328;SDS011;51941;52.210;5.158;2023-05-17T02:26:50;17.60;;;4.45;;
65328;SDS011;51941;52.210;5.158;2023-05-17T02:29:17;15.13;;;4.18;;
65328;SDS011;51941;52.210;5.158;2023-05-17T02:31:43;20.27;;;4.97;;
65328;SDS011;51941;52.210;5.158;2023-05-17T02:34:11;13.50;;;4.00;;
65328;SDS011;51941;52.210;5.158;2023-05-17T02:36:38;18.65;;;3.90;;
65328;SDS011;51941;52.210;5.158;2023-05-17T02:39:05;16.55;;;4.10;;
65328;SDS011;51941;52.210;5.158;2023-05-17T02:41:32;22.27;;;4.93;;
65328;SDS011;51941;52.210;5.158;2023-05-17T02:43:58;18.30;;;4.20;;
65328;SDS011;51941;52.210;5.158;2023-05-17T02:46:25;22.67;;;4.88;;
65328;SDS011;51941;52.210;5.158;2023-05-17T02:48:52;17.48;;;4.47;;
65328;SDS011;51941;52.210;5.158;2023-05-17T02:51:20;19.10;;;4.82;;
65328;SDS011;51941;52.210;5.158;2023-05-17T02:53:46;15.73;;;4.45;;
65328;SDS011;51941;52.210;5.158;2023-05-17T02:56:13;19.90;;;4.05;;
65328;SDS011;51941;52.210;5.158;2023-05-17T02:58:40;14.98;;;3.80;;
65328;SDS011;51941;52.210;5.158;2023-05-17T03:01:07;23.45;;;4.82;;
65328;SDS011;51941;52.210;5.158;2023-05-17T03:03:34;18.58;;;4.07;;
65328;SDS011;51941;52.210;5.158;2023-05-17T03:06:02;18.83;;;3.92;;
65328;SDS011;51941;52.210;5.158;2023-05-17T03:08:32;25.08;;;3.85;;
65328;SDS011;51941;52.210;5.158;2023-05-17T03:11:00;14.32;;;3.55;;
65328;SDS011;51941;52.210;5.158;2023-05-17T03:13:27;19.35;;;3.65;;
65328;SDS011;51941;52.210;5.158;2023-05-17T03:15:54;17.80;;;3.67;;
65328;SDS011;51941;52.210;5.158;2023-05-17T03:18:20;23.77;;;3.45;;
65328;SDS011;51941;52.210;5.158;2023-05-17T03:20:47;25.17;;;3.60;;
65328;SDS011;51941;52.210;5.158;2023-05-17T03:23:14;24.50;;;4.03;;
65328;SDS011;51941;52.210;5.158;2023-05-17T03:25:51;14.82;;;3.20;;
65328;SDS011;51941;52.210;5.158;2023-05-17T03:28:18;14.88;;;2.75;;
65328;SDS011;51941;52.210;5.158;2023-05-17T03:30:46;21.15;;;3.13;;
65328;SDS011;51941;52.210;5.158;2023-05-17T03:33:13;21.17;;;3.70;;
65328;SDS011;51941;52.210;5.158;2023-05-17T03:35:40;17.70;;;2.97;;
65328;SDS011;51941;52.210;5.158;2023-05-17T03:38:07;21.65;;;3.30;;
65328;SDS011;51941;52.210;5.158;2023-05-17T03:40:34;20.45;;;3.00;;
65328;SDS011;51941;52.210;5.158;2023-05-17T03:43:02;19.02;;;2.67;;
65328;SDS011;51941;52.210;5.158;2023-05-17T03:45:30;16.60;;;2.58;;
65328;SDS011;51941;52.210;5.158;2023-05-17T03:47:57;13.30;;;3.22;;
65328;SDS011;51941;52.210;5.158;2023-05-17T03:50:25;17.45;;;2.88;;
65328;SDS011;51941;52.210;5.158;2023-05-17T03:52:52;17.48;;;2.88;;
65328;SDS011;51941;52.210;5.158;2023-05-17T03:55:18;13.75;;;2.00;;
65328;SDS011;51941;52.210;5.158;2023-05-17T03:57:46;17.27;;;2.53;;
65328;SDS011;51941;52.210;5.158;2023-05-17T04:00:14;17.77;;;2.63;;
65328;SDS011;51941;52.210;5.158;2023-05-17T04:02:45;16.05;;;2.47;;
65328;SDS011;51941;52.210;5.158;2023-05-17T04:05:12;15.85;;;1.98;;
65328;SDS011;51941;52.210;5.158;2023-05-17T04:07:41;9.23;;;2.03;;
65328;SDS011;51941;52.210;5.158;2023-05-17T04:10:08;10.63;;;2.15;;
65328;SDS011;51941;52.210;5.158;2023-05-17T04:12:35;15.05;;;2.20;;
65328;SDS011;51941;52.210;5.158;2023-05-17T04:15:02;15.13;;;2.35;;
65328;SDS011;51941;52.210;5.158;2023-05-17T04:17:31;15.55;;;2.15;;
65328;SDS011;51941;52.210;5.158;2023-05-17T04:19:58;15.55;;;2.42;;
65328;SDS011;51941;52.210;5.158;2023-05-17T04:22:25;13.40;;;2.17;;
65328;SDS011;51941;52.210;5.158;2023-05-17T04:24:51;13.68;;;2.28;;
65328;SDS011;51941;52.210;5.158;2023-05-17T04:27:18;8.32;;;1.92;;
65328;SDS011;51941;52.210;5.158;2023-05-17T04:29:46;8.98;;;1.77;;
65328;SDS011;51941;52.210;5.158;2023-05-17T04:32:13;18.90;;;2.58;;
65328;SDS011;51941;52.210;5.158;2023-05-17T04:34:42;15.98;;;2.30;;
65328;SDS011;51941;52.210;5.158;2023-05-17T04:37:09;11.23;;;1.83;;
65328;SDS011;51941;52.210;5.158;2023-05-17T04:39:36;12.60;;;2.40;;
65328;SDS011;51941;52.210;5.158;2023-05-17T04:42:04;11.63;;;2.47;;
65328;SDS011;51941;52.210;5.158;2023-05-17T04:44:35;14.05;;;2.08;;
65328;SDS011;51941;52.210;5.158;2023-05-17T04:47:02;22.27;;;5.35;;
65328;SDS011;51941;52.210;5.158;2023-05-17T04:49:29;15.27;;;3.33;;
65328;SDS011;51941;52.210;5.158;2023-05-17T04:51:58;15.63;;;2.22;;
65328;SDS011;51941;52.210;5.158;2023-05-17T04:54:24;14.75;;;2.60;;
65328;SDS011;51941;52.210;5.158;2023-05-17T04:56:51;13.18;;;2.65;;
65328;SDS011;51941;52.210;5.158;2023-05-17T04:59:38;14.55;;;2.55;;
65328;SDS011;51941;52.210;5.158;2023-05-17T05:02:05;12.80;;;2.58;;
65328;SDS011;51941;52.210;5.158;2023-05-17T05:04:31;18.98;;;2.83;;
65328;SDS011;51941;52.210;5.158;2023-05-17T05:06:59;16.52;;;2.90;;
65328;SDS011;51941;52.210;5.158;2023-05-17T05:09:27;13.63;;;2.53;;
65328;SDS011;51941;52.210;5.158;2023-05-17T05:11:54;14.13;;;2.30;;
65328;SDS011;51941;52.210;5.158;2023-05-17T05:14:20;15.90;;;2.33;;
65328;SDS011;51941;52.210;5.158;2023-05-17T05:16:47;14.07;;;2.90;;
65328;SDS011;51941;52.210;5.158;2023-05-17T05:19:15;17.02;;;2.50;;
65328;SDS011;51941;52.210;5.158;2023-05-17T05:21:43;17.00;;;2.63;;
65328;SDS011;51941;52.210;5.158;2023-05-17T05:24:12;25.63;;;2.72;;
65328;SDS011;51941;52.210;5.158;2023-05-17T05:26:39;18.15;;;2.60;;
65328;SDS011;51941;52.210;5.158;2023-05-17T05:29:07;13.35;;;2.30;;
65328;SDS011;51941;52.210;5.158;2023-05-17T05:31:34;18.48;;;2.28;;
65328;SDS011;51941;52.210;5.158;2023-05-17T05:34:02;17.67;;;2.33;;
65328;SDS011;51941;52.210;5.158;2023-05-17T05:36:30;18.63;;;2.67;;
65328;SDS011;51941;52.210;5.158;2023-05-17T05:38:58;27.80;;;3.83;;
65328;SDS011;51941;52.210;5.158;2023-05-17T05:41:28;14.50;;;1.80;;
65328;SDS011;51941;52.210;5.158;2023-05-17T05:43:55;15.00;;;2.05;;
65328;SDS011;51941;52.210;5.158;2023-05-17T05:46:22;18.60;;;2.08;;
65328;SDS011;51941;52.210;5.158;2023-05-17T05:48:49;20.02;;;2.80;;
65328;SDS011;51941;52.210;5.158;2023-05-17T05:51:16;10.52;;;1.85;;
65328;SDS011;51941;52.210;5.158;2023-05-17T05:53:44;20.95;;;2.33;;
65328;SDS011;51941;52.210;5.158;2023-05-17T05:56:10;16.70;;;2.65;;
65328;SDS011;51941;52.210;5.158;2023-05-17T05:58:39;17.98;;;2.17;;
65328;SDS011;51941;52.210;5.158;2023-05-17T06:01:09;11.05;;;1.67;;
65328;SDS011;51941;52.210;5.158;2023-05-17T06:03:35;18.17;;;2.63;;
65328;SDS011;51941;52.210;5.158;2023-05-17T06:06:02;13.57;;;1.83;;
65328;SDS011;51941;52.210;5.158;2023-05-17T06:08:29;19.58;;;2.47;;
65328;SDS011;51941;52.210;5.158;2023-05-17T06:10:56;18.38;;;2.55;;
65328;SDS011;51941;52.210;5.158;2023-05-17T06:13:23;16.00;;;2.17;;
65328;SDS011;51941;52.210;5.158;2023-05-17T06:15:51;11.80;;;1.98;;
65328;SDS011;51941;52.210;5.158;2023-05-17T06:18:17;14.63;;;2.15;;
65328;SDS011;51941;52.210;5.158;2023-05-17T06:20:44;15.13;;;2.08;;
65328;SDS011;51941;52.210;5.158;2023-05-17T06:23:12;10.05;;;1.50;;
65328;SDS011;51941;52.210;5.158;2023-05-17T06:25:39;14.60;;;2.25;;
65328;SDS011;51941;52.210;5.158;2023-05-17T06:28:06;16.02;;;2.10;;
65328;SDS011;51941;52.210;5.158;2023-05-17T06:30:33;12.20;;;1.77;;
65328;SDS011;51941;52.210;5.158;2023-05-17T06:33:01;10.98;;;1.63;;
65328;SDS011;51941;52.210;5.158;2023-05-17T06:35:28;9.32;;;1.67;;
65328;SDS011;51941;52.210;5.158;2023-05-17T06:37:55;13.65;;;1.80;;
65328;SDS011;51941;52.210;5.158;2023-05-17T06:40:22;13.27;;;1.48;;
65328;SDS011;51941;52.210;5.158;2023-05-17T06:42:52;9.95;;;1.65;;
65328;SDS011;51941;52.210;5.158;2023-05-17T06:45:19;12.88;;;2.10;;
65328;SDS011;51941;52.210;5.158;2023-05-17T06:47:46;13.00;;;1.83;;
65328;SDS011;51941;52.210;5.158;2023-05-17T06:50:15;14.25;;;1.60;;
65328;SDS011;51941;52.210;5.158;2023-05-17T06:52:41;9.93;;;1.52;;
65328;SDS011;51941;52.210;5.158;2023-05-17T06:55:08;13.95;;;1.80;;
65328;SDS011;51941;52.210;5.158;2023-05-17T06:57:35;10.40;;;1.60;;
65328;SDS011;51941;52.210;5.158;2023-05-17T07:00:02;13.48;;;1.90;;
65328;SDS011;51941;52.210;5.158;2023-05-17T07:02:35;11.90;;;1.77;;
65328;SDS011;51941;52.210;5.158;2023-05-17T07:05:02;11.70;;;2.05;;
65328;SDS011;51941;52.210;5.158;2023-05-17T07:07:31;15.32;;;2.05;;
65328;SDS011;51941;52.210;5.158;2023-05-17T07:09:58;11.90;;;1.55;;
65328;SDS011;51941;52.210;5.158;2023-05-17T07:12:25;9.45;;;1.45;;
65328;SDS011;51941;52.210;5.158;2023-05-17T07:14:52;9.45;;;1.80;;
65328;SDS011;51941;52.210;5.158;2023-05-17T07:17:18;10.93;;;1.50;;
65328;SDS011;51941;52.210;5.158;2023-05-17T07:19:45;10.20;;;1.63;;
65328;SDS011;51941;52.210;5.158;2023-05-17T07:24:43;10.07;;;1.50;;
65328;SDS011;51941;52.210;5.158;2023-05-17T07:27:10;10.47;;;1.53;;
65328;SDS011;51941;52.210;5.158;2023-05-17T07:29:37;12.50;;;1.75;;
65328;SDS011;51941;52.210;5.158;2023-05-17T07:32:06;9.40;;;1.25;;
65328;SDS011;51941;52.210;5.158;2023-05-17T07:34:33;5.95;;;1.27;;
65328;SDS011;51941;52.210;5.158;2023-05-17T07:37:00;9.27;;;1.60;;
65328;SDS011;51941;52.210;5.158;2023-05-17T07:39:27;11.10;;;1.40;;
65328;SDS011;51941;52.210;5.158;2023-05-17T07:41:55;8.63;;;1.30;;
65328;SDS011;51941;52.210;5.158;2023-05-17T07:44:22;8.07;;;1.52;;
65328;SDS011;51941;52.210;5.158;2023-05-17T07:46:48;13.15;;;1.65;;
65328;SDS011;51941;52.210;5.158;2023-05-17T07:49:15;9.30;;;1.33;;
65328;SDS011;51941;52.210;5.158;2023-05-17T07:51:42;7.00;;;1.38;;
65328;SDS011;51941;52.210;5.158;2023-05-17T07:54:08;8.23;;;1.23;;
65328;SDS011;51941;52.210;5.158;2023-05-17T07:56:38;11.68;;;1.45;;
65328;SDS011;51941;52.210;5.158;2023-05-17T07:59:06;8.48;;;1.50;;
65328;SDS011;51941;52.210;5.158;2023-05-17T08:01:32;7.63;;;1.40;;
65328;SDS011;51941;52.210;5.158;2023-05-17T08:03:59;8.32;;;1.45;;
65328;SDS011;51941;52.210;5.158;2023-05-17T08:06:26;10.55;;;1.63;;
65328;SDS011;51941;52.210;5.158;2023-05-17T08:08:53;10.65;;;1.80;;
65328;SDS011;51941;52.210;5.158;2023-05-17T08:11:19;10.05;;;1.30;;
65328;SDS011;51941;52.210;5.158;2023-05-17T08:13:46;8.82;;;1.55;;
65328;SDS011;51941;52.210;5.158;2023-05-17T08:16:14;11.27;;;1.40;;
65328;SDS011;51941;52.210;5.158;2023-05-17T08:18:41;9.95;;;1.40;;
65328;SDS011;51941;52.210;5.158;2023-05-17T08:21:07;10.65;;;1.33;;
65328;SDS011;51941;52.210;5.158;2023-05-17T08:23:35;9.45;;;1.40;;
65328;SDS011;51941;52.210;5.158;2023-05-17T08:26:02;7.47;;;1.45;;
65328;SDS011;51941;52.210;5.158;2023-05-17T08:28:29;10.48;;;1.40;;
65328;SDS011;51941;52.210;5.158;2023-05-17T08:30:56;14.82;;;2.05;;
65328;SDS011;51941;52.210;5.158;2023-05-17T08:33:24;9.57;;;1.58;;
65328;SDS011;51941;52.210;5.158;2023-05-17T08:35:51;12.10;;;1.42;;
65328;SDS011;51941;52.210;5.158;2023-05-17T08:38:19;9.63;;;1.33;;
65328;SDS011;51941;52.210;5.158;2023-05-17T08:40:51;11.57;;;1.40;;
65328;SDS011;51941;52.210;5.158;2023-05-17T08:43:18;7.53;;;1.20;;
65328;SDS011;51941;52.210;5.158;2023-05-17T08:45:47;6.40;;;1.00;;
65328;SDS011;51941;52.210;5.158;2023-05-17T08:48:14;5.95;;;1.13;;
65328;SDS011;51941;52.210;5.158;2023-05-17T08:50:45;9.30;;;1.38;;
65328;SDS011;51941;52.210;5.158;2023-05-17T08:53:12;5.77;;;1.03;;
65328;SDS011;51941;52.210;5.158;2023-05-17T08:55:40;4.88;;;1.00;;
65328;SDS011;51941;52.210;5.158;2023-05-17T08:58:12;8.13;;;1.30;;
65328;SDS011;51941;52.210;5.158;2023-05-17T09:00:40;6.07;;;1.00;;
65328;SDS011;51941;52.210;5.158;2023-05-17T09:03:08;10.70;;;1.65;;
65328;SDS011;51941;52.210;5.158;2023-05-17T09:05:38;8.35;;;1.67;;
65328;SDS011;51941;52.210;5.158;2023-05-17T09:08:10;9.80;;;1.10;;
65328;SDS011;51941;52.210;5.158;2023-05-17T09:10:38;6.63;;;1.00;;
65328;SDS011;51941;52.210;5.158;2023-05-17T09:13:05;5.72;;;1.02;;
65328;SDS011;51941;52.210;5.158;2023-05-17T09:15:32;4.50;;;0.95;;
65328;SDS011;51941;52.210;5.158;2023-05-17T09:17:59;7.35;;;0.93;;
65328;SDS011;51941;52.210;5.158;2023-05-17T09:20:27;6.75;;;0.90;;
65328;SDS011;51941;52.210;5.158;2023-05-17T09:22:58;9.45;;;1.02;;
65328;SDS011;51941;52.210;5.158;2023-05-17T09:25:27;6.32;;;0.98;;
65328;SDS011;51941;52.210;5.158;2023-05-17T09:27:58;9.20;;;0.93;;
65328;SDS011;51941;52.210;5.158;2023-05-17T09:30:26;6.97;;;0.90;;
65328;SDS011;51941;52.210;5.158;2023-05-17T09:32:54;6.53;;;0.90;;
65328;SDS011;51941;52.210;5.158;2023-05-17T09:35:26;3.92;;;1.38;;
65328;SDS011;51941;52.210;5.158;2023-05-17T09:37:56;8.00;;;1.02;;
65328;SDS011;51941;52.210;5.158;2023-05-17T09:40:32;7.68;;;1.10;;
65328;SDS011;51941;52.210;5.158;2023-05-17T09:43:02;11.80;;;0.98;;
65328;SDS011;51941;52.210;5.158;2023-05-17T09:45:30;5.85;;;0.98;;
65328;SDS011;51941;52.210;5.158;2023-05-17T09:47:57;5.93;;;0.95;;
65328;SDS011;51941;52.210;5.158;2023-05-17T09:50:35;7.15;;;0.90;;
65328;SDS011;51941;52.210;5.158;2023-05-17T09:53:02;10.35;;;1.35;;
65328;SDS011;51941;52.210;5.158;2023-05-17T09:55:29;8.35;;;1.02;;
65328;SDS011;51941;52.210;5.158;2023-05-17T09:58:02;8.35;;;1.27;;
65328;SDS011;51941;52.210;5.158;2023-05-17T10:00:29;5.43;;;1.00;;
65328;SDS011;51941;52.210;5.158;2023-05-17T10:02:56;9.07;;;1.10;;
65328;SDS011;51941;52.210;5.158;2023-05-17T10:05:24;5.00;;;0.95;;
65328;SDS011;51941;52.210;5.158;2023-05-17T10:07:51;8.38;;;1.23;;
65328;SDS011;51941;52.210;5.158;2023-05-17T10:10:21;6.57;;;0.85;;
65328;SDS011;51941;52.210;5.158;2023-05-17T10:12:48;7.75;;;1.58;;
65328;SDS011;51941;52.210;5.158;2023-05-17T10:15:17;5.57;;;0.82;;
65328;SDS011;51941;52.210;5.158;2023-05-17T10:17:45;5.05;;;1.10;;
65328;SDS011;51941;52.210;5.158;2023-05-17T10:20:12;7.13;;;1.00;;
65328;SDS011;51941;52.210;5.158;2023-05-17T10:22:41;11.90;;;1.52;;
65328;SDS011;51941;52.210;5.158;2023-05-17T10:25:09;8.95;;;1.40;;
65328;SDS011;51941;52.210;5.158;2023-05-17T10:27:36;10.18;;;1.40;;
65328;SDS011;51941;52.210;5.158;2023-05-17T10:30:03;16.20;;;1.90;;
65328;SDS011;51941;52.210;5.158;2023-05-17T10:32:33;5.63;;;1.48;;
65328;SDS011;51941;52.210;5.158;2023-05-17T10:35:01;3.28;;;1.00;;
65328;SDS011;51941;52.210;5.158;2023-05-17T10:37:29;8.60;;;1.50;;
65328;SDS011;51941;52.210;5.158;2023-05-17T10:39:57;5.78;;;1.10;;
65328;SDS011;51941;52.210;5.158;2023-05-17T10:42:24;6.60;;;1.65;;
65328;SDS011;51941;52.210;5.158;2023-05-17T10:44:52;5.27;;;1.10;;
65328;SDS011;51941;52.210;5.158;2023-05-17T10:47:19;6.72;;;1.02;;
65328;SDS011;51941;52.210;5.158;2023-05-17T10:49:48;7.53;;;1.17;;
65328;SDS011;51941;52.210;5.158;2023-05-17T10:52:19;14.68;;;1.58;;
65328;SDS011;51941;52.210;5.158;2023-05-17T10:54:48;9.45;;;2.10;;
65328;SDS011;51941;52.210;5.158;2023-05-17T10:57:17;8.38;;;1.33;;
65328;SDS011;51941;52.210;5.158;2023-05-17T10:59:55;8.90;;;1.15;;
65328;SDS011;51941;52.210;5.158;2023-05-17T11:02:24;6.57;;;1.38;;
65328;SDS011;51941;52.210;5.158;2023-05-17T11:04:54;9.77;;;1.13;;
65328;SDS011;51941;52.210;5.158;2023-05-17T11:07:22;5.72;;;0.98;;
65328;SDS011;51941;52.210;5.158;2023-05-17T11:09:51;4.43;;;1.02;;
65328;SDS011;51941;52.210;5.158;2023-05-17T11:12:30;9.43;;;1.10;;
65328;SDS011;51941;52.210;5.158;2023-05-17T11:14:59;9.53;;;1.17;;
65328;SDS011;51941;52.210;5.158;2023-05-17T11:17:27;7.07;;;1.10;;
65328;SDS011;51941;52.210;5.158;2023-05-17T11:20:04;8.60;;;1.73;;
65328;SDS011;51941;52.210;5.158;2023-05-17T11:22:38;6.72;;;1.08;;
65328;SDS011;51941;52.210;5.158;2023-05-17T11:25:07;9.00;;;1.70;;
65328;SDS011;51941;52.210;5.158;2023-05-17T11:27:37;9.20;;;1.08;;
65328;SDS011;51941;52.210;5.158;2023-05-17T11:30:17;9.80;;;1.47;;
65328;SDS011;51941;52.210;5.158;2023-05-17T11:32:50;10.32;;;1.27;;
65328;SDS011;51941;52.210;5.158;2023-05-17T11:35:23;10.90;;;2.25;;
65328;SDS011;51941;52.210;5.158;2023-05-17T11:37:51;13.00;;;1.75;;
65328;SDS011;51941;52.210;5.158;2023-05-17T11:40:25;10.65;;;1.30;;
65328;SDS011;51941;52.210;5.158;2023-05-17T11:43:11;7.45;;;1.10;;
65328;SDS011;51941;52.210;5.158;2023-05-17T11:45:40;8.60;;;1.60;;
65328;SDS011;51941;52.210;5.158;2023-05-17T11:48:08;7.43;;;1.80;;
65328;SDS011;51941;52.210;5.158;2023-05-17T11:50:38;12.32;;;1.38;;
65328;SDS011;51941;52.210;5.158;2023-05-17T11:53:05;8.93;;;1.75;;
65328;SDS011;51941;52.210;5.158;2023-05-17T11:55:33;8.32;;;1.55;;
65328;SDS011;51941;52.210;5.158;2023-05-17T11:58:03;6.93;;;1.40;;
65328;SDS011;51941;52.210;5.158;2023-05-17T12:00:31;11.05;;;1.40;;
65328;SDS011;51941;52.210;5.158;2023-05-17T12:03:13;10.15;;;1.30;;
65328;SDS011;51941;52.210;5.158;2023-05-17T12:05:41;10.52;;;1.67;;
65328;SDS011;51941;52.210;5.158;2023-05-17T12:08:08;11.68;;;1.50;;
65328;SDS011;51941;52.210;5.158;2023-05-17T12:10:35;8.73;;;1.30;;
65328;SDS011;51941;52.210;5.158;2023-05-17T12:13:02;12.55;;;1.50;;
65328;SDS011;51941;52.210;5.158;2023-05-17T12:15:29;5.85;;;1.05;;
65328;SDS011;51941;52.210;5.158;2023-05-17T12:17:56;13.63;;;1.50;;
65328;SDS011;51941;52.210;5.158;2023-05-17T12:20:23;11.27;;;2.13;;
65328;SDS011;51941;52.210;5.158;2023-05-17T12:22:52;14.45;;;2.92;;
65328;SDS011;51941;52.210;5.158;2023-05-17T12:25:19;10.55;;;1.35;;
65328;SDS011;51941;52.210;5.158;2023-05-17T12:27:49;10.05;;;1.40;;
65328;SDS011;51941;52.210;5.158;2023-05-17T12:30:16;13.38;;;1.35;;
65328;SDS011;51941;52.210;5.158;2023-05-17T12:32:43;9.68;;;1.73;;
65328;SDS011;51941;52.210;5.158;2023-05-17T12:35:11;7.22;;;2.15;;
65328;SDS011;51941;52.210;5.158;2023-05-17T12:37:38;9.10;;;1.63;;
65328;SDS011;51941;52.210;5.158;2023-05-17T12:40:07;8.02;;;1.60;;
65328;SDS011;51941;52.210;5.158;2023-05-17T12:42:36;9.65;;;1.75;;
65328;SDS011;51941;52.210;5.158;2023-05-17T12:45:05;10.53;;;1.90;;
65328;SDS011;51941;52.210;5.158;2023-05-17T12:47:32;8.15;;;1.30;;
65328;SDS011;51941;52.210;5.158;2023-05-17T12:49:59;15.80;;;2.05;;
65328;SDS011;51941;52.210;5.158;2023-05-17T12:52:31;7.60;;;1.33;;
65328;SDS011;51941;52.210;5.158;2023-05-17T12:55:01;16.40;;;2.22;;
65328;SDS011;51941;52.210;5.158;2023-05-17T12:57:34;9.82;;;1.60;;
65328;SDS011;51941;52.210;5.158;2023-05-17T13:00:04;8.63;;;1.60;;
65328;SDS011;51941;52.210;5.158;2023-05-17T13:02:33;10.00;;;1.80;;
65328;SDS011;51941;52.210;5.158;2023-05-17T13:05:11;8.50;;;1.50;;
65328;SDS011;51941;52.210;5.158;2023-05-17T13:07:39;8.48;;;1.10;;
65328;SDS011;51941;52.210;5.158;2023-05-17T13:10:18;10.13;;;1.60;;
65328;SDS011;51941;52.210;5.158;2023-05-17T13:12:55;7.90;;;1.70;;
65328;SDS011;51941;52.210;5.158;2023-05-17T13:15:26;7.75;;;1.42;;
65328;SDS011;51941;52.210;5.158;2023-05-17T13:17:54;6.82;;;1.63;;
65328;SDS011;51941;52.210;5.158;2023-05-17T13:20:21;11.80;;;1.73;;
65328;SDS011;51941;52.210;5.158;2023-05-17T13:22:47;8.68;;;1.80;;
65328;SDS011;51941;52.210;5.158;2023-05-17T13:25:15;10.80;;;1.70;;
65328;SDS011;51941;52.210;5.158;2023-05-17T13:27:41;16.33;;;2.10;;
65328;SDS011;51941;52.210;5.158;2023-05-17T13:30:15;8.38;;;1.70;;
65328;SDS011;51941;52.210;5.158;2023-05-17T13:32:42;8.40;;;1.93;;
65328;SDS011;51941;52.210;5.158;2023-05-17T13:35:11;12.52;;;1.40;;
65328;SDS011;51941;52.210;5.158;2023-05-17T13:37:38;7.40;;;1.50;;
65328;SDS011;51941;52.210;5.158;2023-05-17T13:40:05;13.15;;;2.22;;
65328;SDS011;51941;52.210;5.158;2023-05-17T13:42:33;8.38;;;1.27;;
65328;SDS011;51941;52.210;5.158;2023-05-17T13:45:00;10.30;;;1.85;;
65328;SDS011;51941;52.210;5.158;2023-05-17T13:47:29;7.00;;;1.23;;
65328;SDS011;51941;52.210;5.158;2023-05-17T13:49:58;9.85;;;1.70;;
65328;SDS011;51941;52.210;5.158;2023-05-17T13:52:25;13.60;;;1.83;;
65328;SDS011;51941;52.210;5.158;2023-05-17T13:54:52;6.78;;;1.25;;
65328;SDS011;51941;52.210;5.158;2023-05-17T13:57:18;14.48;;;2.03;;
65328;SDS011;51941;52.210;5.158;2023-05-17T13:59:45;7.35;;;1.48;;
65328;SDS011;51941;52.210;5.158;2023-05-17T14:02:12;7.43;;;1.23;;
65328;SDS011;51941;52.210;5.158;2023-05-17T14:04:40;12.25;;;1.98;;
65328;SDS011;51941;52.210;5.158;2023-05-17T14:07:07;8.32;;;2.08;;
65328;SDS011;51941;52.210;5.158;2023-05-17T14:09:34;6.13;;;1.30;;
65328;SDS011;51941;52.210;5.158;2023-05-17T14:12:01;11.93;;;2.10;;
65328;SDS011;51941;52.210;5.158;2023-05-17T14:14:28;7.32;;;1.55;;
65328;SDS011;51941;52.210;5.158;2023-05-17T14:16:55;11.52;;;2.00;;
65328;SDS011;51941;52.210;5.158;2023-05-17T14:19:22;9.13;;;1.52;;
65328;SDS011;51941;52.210;5.158;2023-05-17T14:21:50;10.35;;;1.40;;
65328;SDS011;51941;52.210;5.158;2023-05-17T14:24:17;14.45;;;2.17;;
65328;SDS011;51941;52.210;5.158;2023-05-17T14:26:43;11.23;;;1.80;;
65328;SDS011;51941;52.210;5.158;2023-05-17T14:29:10;6.70;;;1.52;;
65328;SDS011;51941;52.210;5.158;2023-05-17T14:31:37;6.93;;;1.48;;
65328;SDS011;51941;52.210;5.158;2023-05-17T14:34:03;9.95;;;1.60;;
65328;SDS011;51941;52.210;5.158;2023-05-17T14:36:30;10.23;;;1.85;;
65328;SDS011;51941;52.210;5.158;2023-05-17T14:39:01;8.93;;;1.35;;
65328;SDS011;51941;52.210;5.158;2023-05-17T14:41:28;7.35;;;1.40;;
65328;SDS011;51941;52.210;5.158;2023-05-17T14:43:54;10.85;;;1.67;;
65328;SDS011;51941;52.210;5.158;2023-05-17T14:46:21;10.73;;;1.70;;
65328;SDS011;51941;52.210;5.158;2023-05-17T14:48:48;8.00;;;1.40;;